Terminal Aerodrome Forecast
Issued by NWS

Home | Current Version | Previous Version | Text Only | Print | Product List | Glossary On
Versions: 1 2 3 4 5 6 7 8 9 10 11 12 13 14 15 16 17 18 19 20 21
000
FTUS43 KFGF 221900 AAB
TAFBJI
TAF AMD
KBJI 221952Z 2220/2318 16003KT P6SM BKN025
      TEMPO 2220/2222 BKN040
     FM222200 32006KT P6SM BKN025
     FM230400 VRB03KT P6SM OVC012
     FM231000 VRB03KT P6SM OVC006=

USA.gov is the U.S. government's official web portal to all federal, state and local government web resources and services.